Time;durP1;ratioP1;P1;durP2;ratioP2;P2;SDS_P1;SDS_P2;PMS_P1;PMS_P2;Temp;Humidity;BMP_temperature;BMP_pressure;BME280_temperature;BME280_humidity;BME280_pressure;Samples;Min_cycle;Max_cycle;Signal;HPM_P1;HPM_P2
2023/05/13 00:01:49;;;;;;;10.73;6.57;;;13.20;99.90;;;;;;5091263;28;20174;-59
2023/05/13 00:04:15;;;;;;;10.07;6.00;;;13.20;99.90;;;;;;5091074;28;20174;-59
2023/05/13 00:06:41;;;;;;;15.25;6.97;;;13.30;99.90;;;;;;5091247;28;20167;-59
2023/05/13 00:09:06;;;;;;;14.02;6.65;;;13.20;99.90;;;;;;5091197;28;20222;-60
2023/05/13 00:11:33;;;;;;;10.88;6.47;;;13.20;99.90;;;;;;5091108;28;20579;-60
2023/05/13 00:13:58;;;;;;;10.02;6.60;;;13.20;99.90;;;;;;5091277;28;20179;-60
2023/05/13 00:16:26;;;;;;;9.05;6.55;;;13.10;99.90;;;;;;5091018;28;20639;-60
2023/05/13 00:18:52;;;;;;;11.00;6.77;;;13.00;99.90;;;;;;5090957;28;20175;-60
2023/05/13 00:21:18;;;;;;;10.00;7.07;;;13.00;99.90;;;;;;5091030;28;20221;-58
2023/05/13 00:23:43;;;;;;;10.68;7.28;;;13.00;99.90;;;;;;5090936;28;20180;-59
2023/05/13 00:26:09;;;;;;;12.13;7.43;;;12.90;99.90;;;;;;5090952;28;20178;-59
2023/05/13 00:28:35;;;;;;;12.37;7.27;;;13.00;99.90;;;;;;5090779;28;20203;-59
2023/05/13 00:31:00;;;;;;;10.40;6.80;;;12.90;99.90;;;;;;5090879;28;20636;-58
2023/05/13 00:33:26;;;;;;;13.13;7.68;;;12.90;99.90;;;;;;5090900;28;20259;-60
2023/05/13 00:35:52;;;;;;;14.93;7.60;;;12.90;99.90;;;;;;5090591;28;20230;-60
2023/05/13 00:38:17;;;;;;;12.27;7.60;;;12.80;99.90;;;;;;5090882;28;20191;-60
2023/05/13 00:40:43;;;;;;;12.90;7.57;;;12.70;99.90;;;;;;5090728;28;20175;-59
2023/05/13 00:43:09;;;;;;;12.30;7.60;;;12.70;99.90;;;;;;5090261;28;20198;-59
2023/05/13 00:45:37;;;;;;;15.57;8.50;;;12.70;99.90;;;;;;5088866;28;20538;-59
2023/05/13 00:48:06;;;;;;;11.93;7.75;;;12.60;99.90;;;;;;5081092;28;20203;-58
2023/05/13 00:50:32;;;;;;;11.88;7.63;;;12.70;99.90;;;;;;5083894;28;20195;-58
2023/05/13 00:52:59;;;;;;;13.85;7.93;;;12.70;99.90;;;;;;5078327;28;20180;-58
2023/05/13 00:55:25;;;;;;;12.27;7.43;;;12.60;99.90;;;;;;5090345;28;20174;-59
2023/05/13 00:57:51;;;;;;;12.68;7.95;;;12.60;99.90;;;;;;5093113;28;20175;-59
2023/05/13 01:00:17;;;;;;;12.90;7.00;;;12.50;99.90;;;;;;5083049;28;20176;-59
2023/05/13 01:03:05;;;;;;;12.37;7.73;;;12.40;99.90;;;;;;5094656;28;20183;-59
2023/05/13 01:05:40;;;;;;;13.82;7.63;;;12.50;99.90;;;;;;5078218;28;20234;-59
2023/05/13 01:08:21;;;;;;;12.80;8.10;;;12.50;99.90;;;;;;5094519;28;20199;-59
2023/05/13 01:10:54;;;;;;;13.73;7.20;;;12.60;99.90;;;;;;5094605;28;20199;-59
2023/05/13 01:13:23;;;;;;;13.77;7.47;;;12.50;99.90;;;;;;5093207;28;20171;-58
2023/05/13 01:15:56;;;;;;;9.80;6.70;;;12.60;99.90;;;;;;5094181;28;20263;-58
2023/05/13 01:18:30;;;;;;;13.15;7.57;;;12.60;99.90;;;;;;5094004;28;20180;-59
2023/05/13 01:21:00;;;;;;;10.83;7.00;;;12.60;99.90;;;;;;5094115;28;20283;-58
2023/05/13 01:23:25;;;;;;;11.27;6.87;;;12.50;99.90;;;;;;5093970;28;20255;-58
2023/05/13 01:25:51;;;;;;;15.02;7.43;;;12.50;99.90;;;;;;5094133;28;20183;-59
2023/05/13 01:28:16;;;;;;;12.35;7.45;;;12.60;99.90;;;;;;5094021;28;20202;-58
2023/05/13 01:30:42;;;;;;;10.37;7.30;;;12.50;99.90;;;;;;5091590;28;20652;-58
2023/05/13 01:33:09;;;;;;;12.30;7.10;;;12.60;99.90;;;;;;5073648;28;20503;-58
2023/05/13 01:35:35;;;;;;;10.87;6.93;;;12.50;99.90;;;;;;5073434;28;20220;-58
2023/05/13 01:38:02;;;;;;;13.03;7.50;;;12.50;99.90;;;;;;5073600;28;20168;-59
2023/05/13 01:40:28;;;;;;;9.95;7.47;;;12.40;99.90;;;;;;5073534;28;20164;-59
2023/05/13 01:42:54;;;;;;;14.77;7.97;;;12.40;99.90;;;;;;5073465;28;20223;-59
2023/05/13 01:45:19;;;;;;;15.03;8.27;;;12.40;99.90;;;;;;5073389;28;20555;-59
2023/05/13 01:47:45;;;;;;;10.37;7.70;;;12.40;99.90;;;;;;5073537;28;20179;-59
2023/05/13 01:50:11;;;;;;;10.60;7.47;;;12.40;99.90;;;;;;5073531;28;20179;-59
2023/05/13 01:52:36;;;;;;;10.07;8.17;;;12.30;99.90;;;;;;5078374;28;20670;-59
2023/05/13 01:55:02;;;;;;;10.60;7.37;;;12.30;99.90;;;;;;5075611;28;20674;-59
2023/05/13 01:57:28;;;;;;;12.07;7.43;;;12.20;99.90;;;;;;5093509;28;20171;-59
2023/05/13 01:59:53;;;;;;;13.63;7.50;;;12.20;99.90;;;;;;5091817;28;20187;-59
2023/05/13 02:02:19;;;;;;;11.73;7.80;;;12.20;99.90;;;;;;5077315;28;20207;-59
2023/05/13 02:04:44;;;;;;;11.97;7.53;;;12.10;99.90;;;;;;5074022;28;20208;-59
2023/05/13 02:07:10;;;;;;;11.40;7.90;;;12.20;99.90;;;;;;5079170;28;20656;-59
2023/05/13 02:09:36;;;;;;;13.47;7.77;;;12.10;99.90;;;;;;5093270;28;20242;-59
2023/05/13 02:12:01;;;;;;;10.93;8.23;;;12.10;99.90;;;;;;5093176;28;20168;-59
2023/05/13 02:14:27;;;;;;;15.97;7.80;;;12.40;99.90;;;;;;5093170;28;20250;-58
2023/05/13 02:16:52;;;;;;;13.33;8.23;;;12.00;99.90;;;;;;5093269;28;20654;-59
2023/05/13 02:19:18;;;;;;;13.60;7.93;;;12.00;99.90;;;;;;5092956;28;20172;-58
2023/05/13 02:21:44;;;;;;;11.37;7.60;;;12.00;99.90;;;;;;5092052;28;20218;-59
2023/05/13 02:24:10;;;;;;;17.13;8.10;;;12.10;99.90;;;;;;5092955;28;20176;-60
2023/05/13 02:26:35;;;;;;;13.60;8.20;;;12.00;99.90;;;;;;5093135;28;20691;-59
2023/05/13 02:29:01;;;;;;;12.63;7.73;;;12.00;99.90;;;;;;5092763;28;20199;-59
2023/05/13 02:31:27;;;;;;;13.57;7.90;;;12.00;99.90;;;;;;5093210;28;20175;-59
2023/05/13 02:33:53;;;;;;;12.50;7.77;;;11.90;99.90;;;;;;5092845;28;20248;-59
2023/05/13 02:36:18;;;;;;;11.67;7.63;;;12.00;99.90;;;;;;5093021;28;20190;-59
2023/05/13 02:38:44;;;;;;;10.33;7.63;;;11.90;99.90;;;;;;5092834;28;20164;-59
2023/05/13 02:41:10;;;;;;;12.80;8.30;;;11.90;99.90;;;;;;5074830;28;20176;-59
2023/05/13 02:43:35;;;;;;;13.57;8.30;;;11.90;99.90;;;;;;5072476;28;20656;-59
2023/05/13 02:46:02;;;;;;;15.60;9.10;;;11.90;99.90;;;;;;5072447;28;20177;-59
2023/05/13 02:48:28;;;;;;;13.33;8.23;;;11.80;99.90;;;;;;5072413;28;20250;-59
2023/05/13 02:50:53;;;;;;;15.37;8.30;;;11.80;99.90;;;;;;5072386;28;20580;-60
2023/05/13 02:53:19;;;;;;;16.40;9.00;;;11.60;99.90;;;;;;5072428;28;20180;-59
2023/05/13 02:55:45;;;;;;;15.33;8.73;;;11.70;99.90;;;;;;5072283;28;20622;-61
2023/05/13 02:58:12;;;;;;;12.60;8.40;;;11.70;99.90;;;;;;5054335;28;20216;-61
2023/05/13 03:00:37;;;;;;;12.30;8.60;;;11.70;99.90;;;;;;5080024;28;20218;-60
2023/05/13 03:03:03;;;;;;;18.90;9.43;;;11.70;99.90;;;;;;5077776;28;20191;-60
2023/05/13 03:05:28;;;;;;;11.93;7.83;;;11.80;99.90;;;;;;5089297;28;20184;-60
2023/05/13 03:07:54;;;;;;;14.23;8.30;;;11.70;99.90;;;;;;5075640;28;20169;-58
2023/05/13 03:10:20;;;;;;;12.20;8.00;;;11.70;99.90;;;;;;5072022;28;20180;-59
2023/05/13 03:12:45;;;;;;;12.33;7.37;;;11.70;99.90;;;;;;5071994;28;20672;-59
2023/05/13 03:15:11;;;;;;;12.40;8.10;;;11.80;99.90;;;;;;5070876;28;20169;-60
2023/05/13 03:17:37;;;;;;;16.83;8.43;;;11.80;99.90;;;;;;5081192;28;20168;-60
2023/05/13 03:20:03;;;;;;;10.43;8.03;;;11.70;99.90;;;;;;5087063;28;20730;-59
2023/05/13 03:22:28;;;;;;;12.03;8.37;;;11.70;99.90;;;;;;5071714;28;20722;-60
2023/05/13 03:24:54;;;;;;;12.93;8.17;;;11.60;99.90;;;;;;5083398;28;20204;-60
2023/05/13 03:27:20;;;;;;;14.17;7.97;;;11.60;99.90;;;;;;5088370;28;20228;-59
2023/05/13 03:29:45;;;;;;;13.43;8.43;;;11.60;99.90;;;;;;5082366;28;20222;-59
2023/05/13 03:32:11;;;;;;;13.40;8.27;;;11.60;99.90;;;;;;5079693;28;20230;-59
2023/05/13 03:34:36;;;;;;;12.83;8.13;;;11.70;99.90;;;;;;5071343;28;20218;-57
2023/05/13 03:37:02;;;;;;;12.80;8.20;;;11.60;99.90;;;;;;5088283;28;20188;-60
2023/05/13 03:39:28;;;;;;;13.27;8.60;;;11.60;99.90;;;;;;5071495;28;20199;-60
2023/05/13 03:41:54;;;;;;;13.33;8.00;;;11.60;99.90;;;;;;5091097;28;20172;-60
2023/05/13 03:44:19;;;;;;;13.07;8.03;;;11.60;99.90;;;;;;5080178;28;20184;-60
2023/05/13 03:46:45;;;;;;;12.03;8.17;;;;;;;;;;5073385;28;20172;-60
2023/05/13 03:49:11;;;;;;;15.57;8.37;;;11.70;99.90;;;;;;5091641;28;20207;-60
2023/05/13 03:51:36;;;;;;;15.17;8.53;;;11.60;99.90;;;;;;5074971;28;20180;-60
2023/05/13 03:54:02;;;;;;;13.97;8.37;;;11.60;99.90;;;;;;5091525;28;20176;-60
2023/05/13 03:56:28;;;;;;;11.37;7.43;;;11.60;99.90;;;;;;5091507;28;20621;-60
2023/05/13 03:58:54;;;;;;;14.97;8.07;;;11.50;99.90;;;;;;5091394;28;20199;-60
2023/05/13 04:01:20;;;;;;;13.03;8.27;;;11.60;99.90;;;;;;5087122;28;20239;-59
2023/05/13 04:03:46;;;;;;;12.27;7.70;;;;;;;;;;5074786;28;20180;-59
2023/05/13 04:06:13;;;;;;;13.70;8.27;;;11.60;99.90;;;;;;5090813;28;20244;-59
2023/05/13 04:08:39;;;;;;;16.93;8.00;;;11.70;99.90;;;;;;5071095;28;20219;-59
2023/05/13 04:11:05;;;;;;;11.93;7.83;;;11.70;99.90;;;;;;5075012;28;20168;-59
2023/05/13 04:13:34;;;;;;;12.80;7.93;;;11.70;99.90;;;;;;5087514;28;20236;-60
2023/05/13 04:16:00;;;;;;;12.70;8.17;;;11.70;99.90;;;;;;5090264;28;20233;-60
2023/05/13 04:18:26;;;;;;;11.90;7.27;;;;;;;;;;5091047;28;20632;-59
2023/05/13 04:20:52;;;;;;;11.53;7.83;;;11.50;99.90;;;;;;5091125;28;20172;-60
2023/05/13 04:23:18;;;;;;;13.10;8.47;;;11.50;99.90;;;;;;5090842;28;20172;-60
2023/05/13 04:25:50;;;;;;;14.47;8.43;;;11.60;99.90;;;;;;5090709;28;20172;-60
2023/05/13 04:28:16;;;;;;;15.50;8.10;;;11.50;99.90;;;;;;5091017;28;20203;-59
2023/05/13 04:30:42;;;;;;;12.43;8.03;;;11.50;99.90;;;;;;5091063;28;20210;-59
2023/05/13 04:33:08;;;;;;;12.00;7.83;;;11.50;99.90;;;;;;5090956;28;20631;-60
2023/05/13 04:35:34;;;;;;;16.33;8.63;;;11.50;99.90;;;;;;5090556;28;20223;-60
2023/05/13 04:37:59;;;;;;;12.87;7.77;;;11.40;99.90;;;;;;5091108;28;20176;-60
2023/05/13 04:40:25;;;;;;;12.80;7.47;;;11.60;99.90;;;;;;5090820;28;20547;-60
2023/05/13 04:42:53;;;;;;;11.27;7.80;;;11.60;99.90;;;;;;5090999;28;20208;-60
2023/05/13 04:45:19;;;;;;;10.57;7.33;;;11.50;99.90;;;;;;5090806;28;20262;-60
2023/05/13 04:47:45;;;;;;;12.53;8.13;;;11.60;99.90;;;;;;5090696;28;20647;-60
2023/05/13 04:50:11;;;;;;;11.90;7.70;;;11.60;99.90;;;;;;5090863;28;20176;-59
2023/05/13 04:52:36;;;;;;;11.60;8.00;;;11.50;99.90;;;;;;5090789;28;20662;-60
2023/05/13 04:55:02;;;;;;;10.97;7.43;;;11.40;99.90;;;;;;5090696;28;20172;-59
2023/05/13 04:57:28;;;;;;;15.53;7.57;;;11.40;99.90;;;;;;5090731;28;20254;-59
2023/05/13 04:59:53;;;;;;;11.17;7.47;;;11.50;99.90;;;;;;5090680;28;20176;-59
2023/05/13 05:02:19;;;;;;;11.73;7.60;;;11.50;99.90;;;;;;5090736;28;20168;-59
2023/05/13 05:04:45;;;;;;;10.13;7.17;;;;;;;;;;5090614;28;20184;-59
2023/05/13 05:07:10;;;;;;;13.30;7.50;;;11.50;99.90;;;;;;5090584;28;20660;-59
2023/05/13 05:09:36;;;;;;;14.93;8.10;;;11.60;99.90;;;;;;5090369;28;20218;-59
2023/05/13 05:12:02;;;;;;;13.77;7.97;;;11.60;99.90;;;;;;5076863;28;20298;-59
2023/05/13 05:14:27;;;;;;;13.90;7.73;;;11.70;99.90;;;;;;5087364;28;20705;-59
2023/05/13 05:16:53;;;;;;;12.33;7.50;;;11.60;99.90;;;;;;5073548;28;20169;-59
2023/05/13 05:19:22;;;;;;;13.17;7.60;;;11.60;99.90;;;;;;5078945;28;20533;-59
2023/05/13 05:21:51;;;;;;;14.70;7.50;;;11.70;99.90;;;;;;5090579;28;20175;-59
2023/05/13 05:24:17;;;;;;;10.67;6.87;;;11.60;99.90;;;;;;5090325;28;20176;-59
2023/05/13 05:26:43;;;;;;;13.87;7.03;;;11.60;99.90;;;;;;5090620;28;20174;-59
2023/05/13 05:29:09;;;;;;;12.33;7.13;;;11.70;99.90;;;;;;5090420;28;20212;-59
2023/05/13 05:31:34;;;;;;;11.70;7.50;;;11.70;99.90;;;;;;5090261;28;20180;-59
2023/05/13 05:34:00;;;;;;;13.23;7.90;;;11.70;99.90;;;;;;5090206;28;20219;-59
2023/05/13 05:36:28;;;;;;;14.03;7.43;;;11.60;99.90;;;;;;5090275;28;20585;-60
2023/05/13 05:38:54;;;;;;;11.53;7.83;;;11.70;99.90;;;;;;5092787;28;20541;-60
2023/05/13 05:41:20;;;;;;;10.13;6.90;;;11.70;99.90;;;;;;5094205;28;20554;-59
2023/05/13 05:43:46;;;;;;;13.90;7.37;;;11.70;99.90;;;;;;5094041;28;20171;-59
2023/05/13 05:46:12;;;;;;;10.63;7.70;;;11.60;99.90;;;;;;5094033;28;20164;-59
2023/05/13 05:48:37;;;;;;;12.40;7.40;;;11.80;99.90;;;;;;5093881;28;20211;-59
2023/05/13 05:51:03;;;;;;;11.17;7.33;;;11.50;99.90;;;;;;5093750;28;20251;-59
2023/05/13 05:53:30;;;;;;;9.50;6.60;;;11.60;99.90;;;;;;5093705;28;20168;-59
2023/05/13 05:55:56;;;;;;;10.73;7.37;;;11.70;99.90;;;;;;5093936;28;20179;-59
2023/05/13 05:58:22;;;;;;;11.67;7.50;;;11.70;99.90;;;;;;5093940;28;20179;-59
2023/05/13 06:00:47;;;;;;;10.17;7.10;;;11.70;99.90;;;;;;5093692;28;20655;-59
2023/05/13 06:03:13;;;;;;;11.27;6.80;;;11.70;99.90;;;;;;5093633;28;20183;-59
2023/05/13 06:05:39;;;;;;;14.07;7.20;;;11.80;99.90;;;;;;5093500;28;20186;-59
2023/05/13 06:08:04;;;;;;;9.43;7.33;;;11.70;99.90;;;;;;5093353;28;20745;-58
2023/05/13 06:10:30;;;;;;;11.37;7.30;;;11.70;99.90;;;;;;5093437;28;20180;-59
2023/05/13 06:12:55;;;;;;;10.10;7.03;;;11.70;99.90;;;;;;5093375;28;20237;-58
2023/05/13 06:15:21;;;;;;;11.43;7.37;;;11.80;99.90;;;;;;5093237;28;20255;-59
2023/05/13 06:17:47;;;;;;;10.47;6.83;;;11.80;99.90;;;;;;5093340;28;20172;-59
2023/05/13 06:20:12;;;;;;;15.80;7.80;;;11.90;99.90;;;;;;5093182;28;20172;-59
2023/05/13 06:22:40;;;;;;;15.23;7.43;;;12.00;99.90;;;;;;5093281;28;20559;-59
2023/05/13 06:25:05;;;;;;;13.17;8.10;;;11.90;99.90;;;;;;5093160;28;20164;-59
2023/05/13 06:27:32;;;;;;;15.23;7.80;;;11.90;99.90;;;;;;5093041;28;20172;-60
2023/05/13 06:29:58;;;;;;;14.43;7.63;;;11.90;99.90;;;;;;5093038;28;20298;-58
2023/05/13 06:32:24;;;;;;;13.30;8.53;;;11.90;99.90;;;;;;5092998;28;20172;-58
2023/05/13 06:34:51;;;;;;;13.03;7.80;;;11.90;99.90;;;;;;5092810;28;20272;-59
2023/05/13 06:37:16;;;;;;;16.83;8.60;;;11.80;99.90;;;;;;5092875;28;20160;-59
2023/05/13 06:39:42;;;;;;;12.40;8.03;;;11.80;99.90;;;;;;5093035;28;20562;-59
2023/05/13 06:42:08;;;;;;;11.63;8.03;;;11.80;99.90;;;;;;5092985;28;20168;-59
2023/05/13 06:44:34;;;;;;;13.70;8.20;;;11.90;99.90;;;;;;5092763;28;20580;-60
2023/05/13 06:47:01;;;;;;;14.90;7.90;;;11.90;99.90;;;;;;5092789;28;20191;-59
2023/05/13 06:49:27;;;;;;;15.67;8.20;;;12.00;99.90;;;;;;5092268;28;20268;-60
2023/05/13 06:51:52;;;;;;;11.73;8.90;;;12.00;99.90;;;;;;5092592;28;20584;-59
2023/05/13 06:54:18;;;;;;;16.10;8.67;;;11.90;99.90;;;;;;5090924;28;20199;-60
2023/05/13 06:56:44;;;;;;;13.40;8.10;;;11.90;99.90;;;;;;5092601;28;20653;-60
2023/05/13 06:59:10;;;;;;;14.00;7.73;;;11.90;99.90;;;;;;5092180;28;20259;-60
2023/05/13 07:01:36;;;;;;;11.57;8.17;;;11.70;99.90;;;;;;5084444;28;20180;-59
2023/05/13 07:04:02;;;;;;;12.47;7.90;;;11.70;99.90;;;;;;5072409;28;20179;-59
2023/05/13 07:06:27;;;;;;;11.80;7.93;;;11.70;99.90;;;;;;5062991;28;20697;-59
2023/05/13 07:08:53;;;;;;;12.73;7.60;;;11.80;99.90;;;;;;5074592;28;20223;-59
2023/05/13 07:11:19;;;;;;;12.73;7.80;;;11.90;99.90;;;;;;5071850;28;20682;-59
2023/05/13 07:13:44;;;;;;;8.93;6.60;;;12.00;99.90;;;;;;5076627;28;20184;-59
2023/05/13 07:16:10;;;;;;;11.37;7.00;;;12.00;99.90;;;;;;5089219;28;20206;-60
2023/05/13 07:18:36;;;;;;;10.07;7.07;;;12.00;99.90;;;;;;5092124;28;20168;-61
2023/05/13 07:21:01;;;;;;;9.33;6.60;;;12.00;99.90;;;;;;5092159;28;20160;-60
2023/05/13 07:23:27;;;;;;;11.95;6.75;;;12.00;99.90;;;;;;5073863;28;20302;-60
2023/05/13 07:25:52;;;;;;;13.83;7.20;;;12.00;99.90;;;;;;5092086;28;20172;-60
2023/05/13 07:28:19;;;;;;;10.33;6.87;;;12.10;99.90;;;;;;5092012;28;20191;-61
2023/05/13 07:30:45;;;;;;;9.53;6.80;;;12.00;99.90;;;;;;5092006;28;20662;-61
2023/05/13 07:33:10;;;;;;;11.40;6.93;;;12.00;99.90;;;;;;5072684;28;20164;-61
2023/05/13 07:35:36;;;;;;;10.20;7.20;;;12.20;99.90;;;;;;5091372;28;20629;-61
2023/05/13 07:38:02;;;;;;;11.73;6.50;;;12.00;99.90;;;;;;5083933;28;20161;-69
2023/05/13 07:40:28;;;;;;;9.83;6.10;;;12.20;99.90;;;;;;5077974;28;20175;-69
2023/05/13 07:42:53;;;;;;;9.30;6.50;;;12.20;99.90;;;;;;5090165;28;20233;-66
2023/05/13 07:45:19;;;;;;;13.33;6.90;;;12.20;99.90;;;;;;5091730;28;20249;-67
2023/05/13 07:47:45;;;;;;;10.10;6.50;;;12.40;99.90;;;;;;5090995;28;20519;-65
2023/05/13 07:50:11;;;;;;;11.80;6.80;;;12.40;99.90;;;;;;5072248;28;20223;-65
2023/05/13 07:52:36;;;;;;;9.70;6.33;;;12.50;99.90;;;;;;5071490;28;20227;-65
2023/05/13 07:55:03;;;;;;;8.17;5.83;;;12.70;99.90;;;;;;5071310;28;20660;-66
2023/05/13 07:57:28;;;;;;;10.47;6.10;;;12.50;99.90;;;;;;5053618;28;20177;-65
2023/05/13 07:59:54;;;;;;;8.68;5.95;;;12.60;99.90;;;;;;5072785;28;20234;-65
2023/05/13 08:02:20;;;;;;;11.17;6.37;;;12.60;99.90;;;;;;5070681;28;20214;-65
2023/05/13 08:04:46;;;;;;;17.53;7.10;;;12.60;99.90;;;;;;5071151;28;20187;-65
2023/05/13 08:07:11;;;;;;;8.90;6.90;;;12.60;99.90;;;;;;5071200;28;20177;-65
2023/05/13 08:09:37;;;;;;;9.73;6.30;;;12.60;99.90;;;;;;5089625;28;20215;-66
2023/05/13 08:12:03;;;;;;;9.63;6.37;;;12.60;99.90;;;;;;5071410;28;20188;-65
2023/05/13 08:14:28;;;;;;;9.73;6.63;;;12.60;99.90;;;;;;5071050;28;20266;-66
2023/05/13 08:16:54;;;;;;;13.07;6.13;;;12.50;99.90;;;;;;5070950;28;20661;-66
2023/05/13 08:19:20;;;;;;;9.17;6.60;;;12.60;99.90;;;;;;5078450;28;20179;-66
2023/05/13 08:21:45;;;;;;;10.65;6.25;;;12.60;99.90;;;;;;5090873;28;20663;-65
2023/05/13 08:24:11;;;;;;;11.53;6.47;;;12.50;99.90;;;;;;5091227;28;20246;-66
2023/05/13 08:26:37;;;;;;;11.75;6.32;;;12.70;99.90;;;;;;5078626;28;20168;-65
2023/05/13 08:29:03;;;;;;;9.97;6.47;;;12.80;99.90;;;;;;5091020;28;20211;-65
2023/05/13 08:31:30;;;;;;;11.88;6.38;;;12.90;99.90;;;;;;5090880;28;20241;-65
2023/05/13 08:33:56;;;;;;;14.13;6.60;;;12.90;99.90;;;;;;5091001;28;20258;-65
2023/05/13 08:36:23;;;;;;;8.10;6.20;;;12.90;99.90;;;;;;5073589;28;20272;-66
2023/05/13 08:38:48;;;;;;;11.23;6.05;;;13.10;99.90;;;;;;5076662;28;20677;-65
2023/05/13 08:41:14;;;;;;;7.05;5.30;;;13.20;99.90;;;;;;5090780;28;20260;-65
2023/05/13 08:43:42;;;;;;;7.93;5.93;;;13.00;99.90;;;;;;5090613;28;20215;-66
2023/05/13 08:46:09;;;;;;;12.45;6.93;;;12.90;99.90;;;;;;5090676;28;20179;-65
2023/05/13 08:48:39;;;;;;;10.18;6.30;;;13.10;99.90;;;;;;5090770;28;20212;-65
2023/05/13 08:51:05;;;;;;;10.98;5.90;;;13.10;99.90;;;;;;5085904;28;20195;-64
2023/05/13 08:53:33;;;;;;;9.90;6.40;;;13.20;99.90;;;;;;5083108;28;20176;-66
2023/05/13 08:55:59;;;;;;;9.05;6.07;;;13.40;99.90;;;;;;5053431;28;20637;-65
2023/05/13 08:58:25;;;;;;;12.25;6.45;;;13.50;99.90;;;;;;5075104;28;20195;-65
2023/05/13 09:00:54;;;;;;;8.55;6.03;;;13.60;99.90;;;;;;5079252;28;20177;-66
2023/05/13 09:03:20;;;;;;;10.60;6.15;;;13.80;99.90;;;;;;5089797;28;20212;-66
2023/05/13 09:05:46;;;;;;;13.00;6.07;;;13.90;1.00;;;;;;5090668;28;20207;-65
2023/05/13 09:08:12;;;;;;;8.68;5.75;;;13.90;1.00;;;;;;5090532;28;20208;-65
2023/05/13 09:10:38;;;;;;;8.90;5.70;;;14.00;1.00;;;;;;5084593;28;20187;-66
2023/05/13 09:13:04;;;;;;;10.27;6.50;;;14.00;1.00;;;;;;5071540;28;20183;-66
2023/05/13 09:15:31;;;;;;;9.10;6.15;;;14.10;1.00;;;;;;5074254;28;20177;-65
2023/05/13 09:18:05;;;;;;;9.27;6.15;;;14.10;1.00;;;;;;5062116;28;20175;-61
2023/05/13 09:20:31;;;;;;;10.27;5.53;;;13.90;1.00;;;;;;5094524;28;20172;-61
2023/05/13 09:23:00;;;;;;;10.85;6.13;;;14.10;1.00;;;;;;5092323;28;20180;-62
2023/05/13 09:25:26;;;;;;;8.90;5.50;;;14.30;1.00;;;;;;5082726;28;20174;-62
2023/05/13 09:27:56;;;;;;;7.70;5.65;;;14.20;1.00;;;;;;5094174;28;20259;-66
2023/05/13 09:30:22;;;;;;;9.15;5.60;;;14.10;1.00;;;;;;5091912;28;20175;-61
2023/05/13 09:33:09;;;;;;;10.73;6.18;;;14.20;1.00;;;;;;5093906;28;20184;-63
2023/05/13 09:35:48;;;;;;;10.50;5.93;;;14.60;1.00;;;;;;5093966;28;20226;-65
2023/05/13 09:38:20;;;;;;;10.40;5.55;;;14.50;1.00;;;;;;5084252;28;20175;-68
2023/05/13 09:40:56;;;;;;;11.38;5.78;;;14.70;1.00;;;;;;5086166;28;20160;-65
2023/05/13 09:43:27;;;;;;;12.52;6.45;;;14.80;1.00;;;;;;5094017;28;20272;-65
2023/05/13 09:45:59;;;;;;;10.23;6.50;;;14.80;99.90;;;;;;5098101;28;20180;-64
2023/05/13 09:48:27;;;;;;;13.50;8.68;;;15.00;99.90;;;;;;5080447;28;20274;-64
2023/05/13 09:50:54;;;;;;;11.77;5.97;;;15.10;1.00;;;;;;5073839;28;20184;-64
2023/05/13 09:53:20;;;;;;;11.60;6.35;;;14.90;1.00;;;;;;5073611;28;20168;-64
2023/05/13 09:55:47;;;;;;;8.65;6.40;;;14.90;1.00;;;;;;5086367;28;20632;-64
2023/05/13 09:58:13;;;;;;;11.52;6.80;;;15.10;1.00;;;;;;5076073;28;20206;-64
2023/05/13 10:00:40;;;;;;;12.38;6.93;;;15.10;1.00;;;;;;5079754;28;20683;-64
2023/05/13 10:03:06;;;;;;;10.32;6.90;;;15.20;1.00;;;;;;5093283;28;20259;-64
2023/05/13 10:05:33;;;;;;;11.45;6.40;;;15.40;1.00;;;;;;5093616;28;20176;-64
2023/05/13 10:08:00;;;;;;;11.52;6.47;;;15.30;1.00;;;;;;5073639;28;20646;-64
2023/05/13 10:10:29;;;;;;;9.75;6.65;;;15.30;99.90;;;;;;5073414;28;20205;-66
2023/05/13 10:12:55;;;;;;;10.00;6.40;;;15.30;1.00;;;;;;5090310;28;20215;-65
2023/05/13 10:15:22;;;;;;;15.95;8.13;;;15.40;1.00;;;;;;5093364;28;20262;-62
2023/05/13 10:17:48;;;;;;;11.90;7.40;;;15.40;1.00;;;;;;5093138;28;20164;-60
2023/05/13 10:20:14;;;;;;;11.90;7.65;;;15.60;1.00;;;;;;5093352;28;20199;-62
2023/05/13 10:22:40;;;;;;;13.18;7.93;;;15.60;99.90;;;;;;5074739;28;20220;-62
2023/05/13 10:25:06;;;;;;;13.50;7.50;;;15.10;1.00;;;;;;5092707;28;20694;-60
2023/05/13 10:27:32;;;;;;;12.18;7.60;;;15.20;84.80;;;;;;5093075;28;20217;-60
2023/05/13 10:30:00;;;;;;;16.23;7.97;;;15.20;1.00;;;;;;5090545;28;20204;-66
2023/05/13 10:32:29;;;;;;;10.88;7.05;;;15.20;1.00;;;;;;5092572;28;20652;-64
2023/05/13 10:35:10;;;;;;;14.43;7.35;;;15.00;1.00;;;;;;5073878;28;20314;-65
2023/05/13 10:37:48;;;;;;;16.63;7.80;;;15.00;1.00;;;;;;5072824;28;20156;-65
2023/05/13 10:40:30;;;;;;;12.93;7.53;;;15.10;40.20;;;;;;5074959;28;20179;-65
2023/05/13 10:43:16;;;;;;;13.85;7.05;;;14.80;1.00;;;;;;5082873;28;20180;-66
2023/05/13 10:45:49;;;;;;;10.70;7.38;;;15.10;1.00;;;;;;5092561;28;20184;-65
2023/05/13 10:48:16;;;;;;;15.80;7.30;;;14.80;1.00;;;;;;5077679;28;20607;-65
2023/05/13 10:50:59;;;;;;;11.85;7.50;;;15.00;70.40;;;;;;5072757;28;20252;-65
2023/05/13 10:53:29;;;;;;;12.45;7.18;;;15.10;1.00;;;;;;5072492;28;20181;-66
2023/05/13 10:55:56;;;;;;;11.77;7.30;;;15.10;1.00;;;;;;5072256;28;20213;-66
2023/05/13 10:58:29;;;;;;;12.32;8.30;;;15.10;1.00;;;;;;5072334;28;20198;-66
2023/05/13 11:01:41;;;;;;;11.98;7.07;;;15.00;1.00;;;;;;5072154;28;20184;-66
2023/05/13 11:04:15;;;;;;;10.20;6.70;;;15.40;99.90;;;;;;5071257;28;20276;-67
2023/05/13 11:06:43;;;;;;;10.82;6.72;;;15.50;1.00;;;;;;5072040;28;20248;-65
2023/05/13 11:09:29;;;;;;;9.85;6.93;;;15.80;99.90;;;;;;5071886;28;20208;-66
2023/05/13 11:11:57;;;;;;;13.98;7.10;;;16.00;55.90;;;;;;5071940;28;20207;-66
2023/05/13 11:14:24;;;;;;;11.63;6.93;;;15.90;1.00;;;;;;5071918;28;20256;-66
2023/05/13 11:17:03;;;;;;;11.80;6.75;;;16.10;1.00;;;;;;5071819;28;20184;-66
2023/05/13 11:19:50;;;;;;;9.80;6.15;;;16.50;1.00;;;;;;5071886;28;20184;-66
2023/05/13 11:22:26;;;;;;;10.93;6.82;;;16.50;1.00;;;;;;5071420;28;20253;-66
2023/05/13 11:25:09;;;;;;;11.05;6.00;;;16.80;1.00;;;;;;5071676;28;20416;-66
2023/05/13 11:27:41;;;;;;;9.10;6.30;;;16.90;1.00;;;;;;5071610;28;20188;-66
2023/05/13 11:30:26;;;;;;;8.63;5.88;;;17.10;99.90;;;;;;5071523;28;20243;-66
2023/05/13 11:33:01;;;;;;;11.85;6.40;;;17.40;1.00;;;;;;5071652;28;20344;-65
2023/05/13 11:35:27;;;;;;;9.73;6.47;;;17.50;99.90;;;;;;5070519;28;20224;-64
2023/05/13 11:37:54;;;;;;;9.32;6.22;;;17.60;99.90;;;;;;5071479;28;20177;-65
2023/05/13 11:40:22;;;;;;;12.35;6.57;;;18.20;99.90;;;;;;5071678;28;20204;-65
2023/05/13 11:42:48;;;;;;;10.05;6.85;;;18.70;1.00;;;;;;5071523;28;20168;-66
2023/05/13 11:45:19;;;;;;;11.43;6.55;;;18.10;1.00;;;;;;5071348;28;20179;-66
2023/05/13 11:47:45;;;;;;;11.20;6.38;;;18.10;99.90;;;;;;5082138;28;20217;-66
2023/05/13 11:50:17;;;;;;;10.93;6.32;;;18.50;3.50;;;;;;5091595;28;20215;-66
2023/05/13 11:52:43;;;;;;;11.68;6.10;;;18.70;1.00;;;;;;5091565;28;20203;-66
2023/05/13 11:55:08;;;;;;;9.77;6.07;;;18.60;99.90;;;;;;5091547;28;20589;-66
2023/05/13 11:57:35;;;;;;;11.10;5.80;;;18.50;99.90;;;;;;5091381;28;20160;-66
2023/05/13 12:00:09;;;;;;;8.20;6.00;;;19.70;99.90;;;;;;5091272;28;20632;-65
2023/05/13 12:02:44;;;;;;;7.82;5.43;;;19.10;1.00;;;;;;5091417;28;20183;-65
2023/05/13 12:05:11;;;;;;;12.60;5.88;;;20.50;99.90;;;;;;5091399;28;20171;-65
2023/05/13 12:07:38;;;;;;;7.35;5.35;;;20.60;99.90;;;;;;5091433;28;20168;-67
2023/05/13 12:10:05;;;;;;;8.68;5.40;;;21.50;94.80;;;;;;5091159;28;20203;-67
2023/05/13 12:12:34;;;;;;;9.27;5.80;;;22.00;1.00;;;;;;5091188;28;20179;-67
2023/05/13 12:15:01;;;;;;;7.65;5.25;;;23.30;1.00;;;;;;5085756;28;20360;-68
2023/05/13 12:17:29;;;;;;;9.75;5.32;;;24.20;99.90;;;;;;5079523;28;20229;-65
2023/05/13 12:20:18;;;;;;;8.68;5.18;;;23.80;1.00;;;;;;5091083;28;20297;-66
2023/05/13 12:22:43;;;;;;;8.85;4.88;;;23.40;1.00;;;;;;5080779;28;20168;-66
2023/05/13 12:25:37;;;;;;;9.98;4.88;;;24.50;1.00;;;;;;5057883;28;20176;-66
2023/05/13 12:28:15;;;;;;;4.68;4.13;;;24.70;1.00;;;;;;5070656;28;20199;-66
2023/05/13 12:30:43;;;;;;;5.70;4.50;;;24.60;1.00;;;;;;5070680;28;20648;-66
2023/05/13 12:33:16;;;;;;;8.98;4.63;;;24.00;1.00;;;;;;5071044;28;20179;-66
2023/05/13 12:35:43;;;;;;;8.88;4.88;;;24.30;1.00;;;;;;5070581;28;20220;-66
2023/05/13 12:38:23;;;;;;;8.05;4.72;;;23.70;1.00;;;;;;5055716;28;20172;-65
2023/05/13 12:40:50;;;;;;;9.00;4.93;;;23.70;1.00;;;;;;5090824;28;20186;-65
2023/05/13 12:43:17;;;;;;;6.97;4.60;;;25.00;1.00;;;;;;5089363;28;20171;-66
2023/05/13 12:45:45;;;;;;;5.80;4.25;;;25.20;1.00;;;;;;5070547;28;20193;-66